sensor_id;sensor_type;location;lat;lon;timestamp;P1;durP1;ratioP1;P2;durP2;ratioP2
72791;SDS011;60907;53.268;8.764;2023-03-01T00:01:04;4.50;;;1.80;;
72791;SDS011;60907;53.268;8.764;2023-03-01T00:03:31;4.03;;;2.10;;
72791;SDS011;60907;53.268;8.764;2023-03-01T00:05:57;2.97;;;1.45;;
72791;SDS011;60907;53.268;8.764;2023-03-01T00:08:23;4.72;;;1.80;;
72791;SDS011;60907;53.268;8.764;2023-03-01T00:10:49;3.83;;;1.60;;
72791;SDS011;60907;53.268;8.764;2023-03-01T00:13:14;4.27;;;1.60;;
72791;SDS011;60907;53.268;8.764;2023-03-01T00:15:39;4.40;;;2.00;;
72791;SDS011;60907;53.268;8.764;2023-03-01T00:18:06;2.97;;;1.42;;
72791;SDS011;60907;53.268;8.764;2023-03-01T00:20:32;2.58;;;1.55;;
72791;SDS011;60907;53.268;8.764;2023-03-01T00:22:57;3.97;;;1.95;;
72791;SDS011;60907;53.268;8.764;2023-03-01T00:25:23;3.90;;;2.00;;
72791;SDS011;60907;53.268;8.764;2023-03-01T00:27:48;4.10;;;2.00;;
72791;SDS011;60907;53.268;8.764;2023-03-01T00:30:14;3.03;;;1.73;;
72791;SDS011;60907;53.268;8.764;2023-03-01T00:32:39;4.30;;;1.77;;
72791;SDS011;60907;53.268;8.764;2023-03-01T00:35:05;3.75;;;1.77;;
72791;SDS011;60907;53.268;8.764;2023-03-01T00:37:30;3.20;;;1.67;;
72791;SDS011;60907;53.268;8.764;2023-03-01T00:39:56;4.82;;;2.15;;
72791;SDS011;60907;53.268;8.764;2023-03-01T00:42:21;5.30;;;2.28;;
72791;SDS011;60907;53.268;8.764;2023-03-01T00:44:47;2.40;;;1.50;;
72791;SDS011;60907;53.268;8.764;2023-03-01T00:47:12;3.78;;;1.50;;
72791;SDS011;60907;53.268;8.764;2023-03-01T00:49:38;2.75;;;1.58;;
72791;SDS011;60907;53.268;8.764;2023-03-01T00:52:04;2.92;;;1.50;;
72791;SDS011;60907;53.268;8.764;2023-03-01T00:54:30;3.22;;;1.20;;
72791;SDS011;60907;53.268;8.764;2023-03-01T00:56:55;2.00;;;0.95;;
72791;SDS011;60907;53.268;8.764;2023-03-01T00:59:21;2.30;;;1.23;;
72791;SDS011;60907;53.268;8.764;2023-03-01T01:01:46;2.90;;;1.20;;
72791;SDS011;60907;53.268;8.764;2023-03-01T01:04:13;3.75;;;1.50;;
72791;SDS011;60907;53.268;8.764;2023-03-01T01:06:43;2.95;;;1.65;;
72791;SDS011;60907;53.268;8.764;2023-03-01T01:09:10;3.50;;;1.50;;
72791;SDS011;60907;53.268;8.764;2023-03-01T01:11:46;2.83;;;1.55;;
72791;SDS011;60907;53.268;8.764;2023-03-01T01:14:13;2.55;;;1.40;;
72791;SDS011;60907;53.268;8.764;2023-03-01T01:16:39;2.90;;;1.45;;
72791;SDS011;60907;53.268;8.764;2023-03-01T01:19:05;3.10;;;1.35;;
72791;SDS011;60907;53.268;8.764;2023-03-01T01:21:30;3.65;;;1.27;;
72791;SDS011;60907;53.268;8.764;2023-03-01T01:23:56;2.83;;;1.23;;
72791;SDS011;60907;53.268;8.764;2023-03-01T01:26:23;2.15;;;1.33;;
72791;SDS011;60907;53.268;8.764;2023-03-01T01:28:50;2.90;;;1.23;;
72791;SDS011;60907;53.268;8.764;2023-03-01T01:31:16;2.50;;;1.55;;
72791;SDS011;60907;53.268;8.764;2023-03-01T01:33:42;1.85;;;1.15;;
72791;SDS011;60907;53.268;8.764;2023-03-01T01:36:08;3.05;;;1.60;;
72791;SDS011;60907;53.268;8.764;2023-03-01T01:38:34;3.03;;;1.35;;
72791;SDS011;60907;53.268;8.764;2023-03-01T01:41:00;3.13;;;1.40;;
72791;SDS011;60907;53.268;8.764;2023-03-01T01:43:30;2.80;;;1.42;;
72791;SDS011;60907;53.268;8.764;2023-03-01T01:46:02;1.73;;;1.10;;
72791;SDS011;60907;53.268;8.764;2023-03-01T01:48:48;3.00;;;1.48;;
72791;SDS011;60907;53.268;8.764;2023-03-01T01:51:21;3.30;;;1.33;;
72791;SDS011;60907;53.268;8.764;2023-03-01T01:53:51;3.53;;;1.45;;
72791;SDS011;60907;53.268;8.764;2023-03-01T01:56:22;3.88;;;1.95;;
72791;SDS011;60907;53.268;8.764;2023-03-01T01:58:49;2.42;;;1.50;;
72791;SDS011;60907;53.268;8.764;2023-03-01T02:01:14;3.70;;;1.63;;
72791;SDS011;60907;53.268;8.764;2023-03-01T02:03:40;2.35;;;1.30;;
72791;SDS011;60907;53.268;8.764;2023-03-01T02:06:19;2.92;;;1.90;;
72791;SDS011;60907;53.268;8.764;2023-03-01T02:08:49;4.13;;;1.65;;
72791;SDS011;60907;53.268;8.764;2023-03-01T02:11:15;4.38;;;1.60;;
72791;SDS011;60907;53.268;8.764;2023-03-01T02:13:42;4.80;;;2.40;;
72791;SDS011;60907;53.268;8.764;2023-03-01T02:16:08;4.70;;;1.95;;
72791;SDS011;60907;53.268;8.764;2023-03-01T02:18:35;2.35;;;1.40;;
72791;SDS011;60907;53.268;8.764;2023-03-01T02:23:31;4.45;;;1.75;;
72791;SDS011;60907;53.268;8.764;2023-03-01T02:26:00;2.60;;;1.38;;
72791;SDS011;60907;53.268;8.764;2023-03-01T02:28:32;3.47;;;1.48;;
72791;SDS011;60907;53.268;8.764;2023-03-01T02:31:01;5.65;;;1.77;;
72791;SDS011;60907;53.268;8.764;2023-03-01T02:33:48;2.58;;;1.50;;
72791;SDS011;60907;53.268;8.764;2023-03-01T02:36:47;3.58;;;1.73;;
72791;SDS011;60907;53.268;8.764;2023-03-01T02:39:11;3.50;;;1.35;;
72791;SDS011;60907;53.268;8.764;2023-03-01T02:41:47;4.90;;;1.90;;
72791;SDS011;60907;53.268;8.764;2023-03-01T02:46:47;1.93;;;1.03;;
72791;SDS011;60907;53.268;8.764;2023-03-01T02:49:25;2.95;;;1.65;;
72791;SDS011;60907;53.268;8.764;2023-03-01T02:54:51;3.40;;;1.65;;
72791;SDS011;60907;53.268;8.764;2023-03-01T02:57:21;4.60;;;1.83;;
72791;SDS011;60907;53.268;8.764;2023-03-01T02:59:47;4.78;;;1.98;;
72791;SDS011;60907;53.268;8.764;2023-03-01T03:02:20;3.20;;;1.60;;
72791;SDS011;60907;53.268;8.764;2023-03-01T03:07:33;4.75;;;1.75;;
72791;SDS011;60907;53.268;8.764;2023-03-01T03:09:59;4.45;;;1.85;;
72791;SDS011;60907;53.268;8.764;2023-03-01T03:12:26;3.78;;;1.52;;
72791;SDS011;60907;53.268;8.764;2023-03-01T03:14:52;4.63;;;1.50;;
72791;SDS011;60907;53.268;8.764;2023-03-01T03:17:17;3.80;;;1.73;;
72791;SDS011;60907;53.268;8.764;2023-03-01T03:19:42;5.93;;;2.63;;
72791;SDS011;60907;53.268;8.764;2023-03-01T03:22:10;2.83;;;1.38;;
72791;SDS011;60907;53.268;8.764;2023-03-01T03:24:36;3.05;;;1.50;;
72791;SDS011;60907;53.268;8.764;2023-03-01T03:27:06;3.70;;;1.70;;
72791;SDS011;60907;53.268;8.764;2023-03-01T03:29:32;4.35;;;2.10;;
72791;SDS011;60907;53.268;8.764;2023-03-01T03:31:58;3.97;;;2.30;;
72791;SDS011;60907;53.268;8.764;2023-03-01T03:34:23;2.80;;;1.80;;
72791;SDS011;60907;53.268;8.764;2023-03-01T03:36:52;3.05;;;1.60;;
72791;SDS011;60907;53.268;8.764;2023-03-01T03:39:22;4.43;;;1.85;;
72791;SDS011;60907;53.268;8.764;2023-03-01T03:41:48;3.45;;;1.80;;
72791;SDS011;60907;53.268;8.764;2023-03-01T03:44:14;2.90;;;1.40;;
72791;SDS011;60907;53.268;8.764;2023-03-01T03:46:39;5.60;;;1.77;;
72791;SDS011;60907;53.268;8.764;2023-03-01T03:49:05;3.35;;;1.85;;
72791;SDS011;60907;53.268;8.764;2023-03-01T03:51:30;4.53;;;1.63;;
72791;SDS011;60907;53.268;8.764;2023-03-01T03:53:55;3.00;;;1.70;;
72791;SDS011;60907;53.268;8.764;2023-03-01T03:56:21;5.97;;;1.85;;
72791;SDS011;60907;53.268;8.764;2023-03-01T03:58:51;6.22;;;2.38;;
72791;SDS011;60907;53.268;8.764;2023-03-01T04:01:17;4.25;;;2.25;;
72791;SDS011;60907;53.268;8.764;2023-03-01T04:03:43;3.63;;;1.85;;
72791;SDS011;60907;53.268;8.764;2023-03-01T04:06:11;3.25;;;1.75;;
72791;SDS011;60907;53.268;8.764;2023-03-01T04:08:38;2.67;;;1.45;;
72791;SDS011;60907;53.268;8.764;2023-03-01T04:11:04;2.10;;;1.60;;
72791;SDS011;60907;53.268;8.764;2023-03-01T04:13:48;6.93;;;2.10;;
72791;SDS011;60907;53.268;8.764;2023-03-01T04:16:14;4.18;;;1.45;;
72791;SDS011;60907;53.268;8.764;2023-03-01T04:18:39;5.18;;;1.40;;
72791;SDS011;60907;53.268;8.764;2023-03-01T04:21:05;3.92;;;1.70;;
72791;SDS011;60907;53.268;8.764;2023-03-01T04:23:30;5.93;;;2.30;;
72791;SDS011;60907;53.268;8.764;2023-03-01T04:25:57;3.33;;;1.85;;
72791;SDS011;60907;53.268;8.764;2023-03-01T04:28:30;3.65;;;1.58;;
72791;SDS011;60907;53.268;8.764;2023-03-01T04:31:19;4.88;;;1.50;;
72791;SDS011;60907;53.268;8.764;2023-03-01T04:33:47;3.83;;;1.55;;
72791;SDS011;60907;53.268;8.764;2023-03-01T04:36:16;5.07;;;1.77;;
72791;SDS011;60907;53.268;8.764;2023-03-01T04:38:43;4.90;;;2.15;;
72791;SDS011;60907;53.268;8.764;2023-03-01T04:41:12;2.83;;;1.27;;
72791;SDS011;60907;53.268;8.764;2023-03-01T04:43:38;3.70;;;1.40;;
72791;SDS011;60907;53.268;8.764;2023-03-01T04:46:08;3.55;;;1.80;;
72791;SDS011;60907;53.268;8.764;2023-03-01T04:48:36;4.40;;;1.80;;
72791;SDS011;60907;53.268;8.764;2023-03-01T04:51:02;2.80;;;1.27;;
72791;SDS011;60907;53.268;8.764;2023-03-01T04:53:28;4.55;;;2.05;;
72791;SDS011;60907;53.268;8.764;2023-03-01T04:55:55;4.95;;;2.05;;
72791;SDS011;60907;53.268;8.764;2023-03-01T04:58:24;3.25;;;1.80;;
72791;SDS011;60907;53.268;8.764;2023-03-01T05:00:51;3.88;;;1.67;;
72791;SDS011;60907;53.268;8.764;2023-03-01T05:03:17;3.45;;;1.92;;
72791;SDS011;60907;53.268;8.764;2023-03-01T05:05:44;3.92;;;1.75;;
72791;SDS011;60907;53.268;8.764;2023-03-01T05:08:11;6.30;;;2.15;;
72791;SDS011;60907;53.268;8.764;2023-03-01T05:10:43;3.45;;;1.92;;
72791;SDS011;60907;53.268;8.764;2023-03-01T05:13:11;3.85;;;2.00;;
72791;SDS011;60907;53.268;8.764;2023-03-01T05:15:38;6.38;;;2.42;;
72791;SDS011;60907;53.268;8.764;2023-03-01T05:18:04;4.78;;;1.55;;
72791;SDS011;60907;53.268;8.764;2023-03-01T05:20:36;3.15;;;1.85;;
72791;SDS011;60907;53.268;8.764;2023-03-01T05:23:02;4.90;;;2.08;;
72791;SDS011;60907;53.268;8.764;2023-03-01T05:25:30;6.35;;;2.50;;
72791;SDS011;60907;53.268;8.764;2023-03-01T05:28:01;4.43;;;1.80;;
72791;SDS011;60907;53.268;8.764;2023-03-01T05:30:30;4.30;;;2.42;;
72791;SDS011;60907;53.268;8.764;2023-03-01T05:32:58;5.05;;;1.95;;
72791;SDS011;60907;53.268;8.764;2023-03-01T05:35:24;6.65;;;2.72;;
72791;SDS011;60907;53.268;8.764;2023-03-01T05:37:50;5.28;;;2.97;;
72791;SDS011;60907;53.268;8.764;2023-03-01T05:40:17;7.00;;;2.00;;
72791;SDS011;60907;53.268;8.764;2023-03-01T05:42:48;6.45;;;2.58;;
72791;SDS011;60907;53.268;8.764;2023-03-01T05:45:15;4.07;;;2.17;;
72791;SDS011;60907;53.268;8.764;2023-03-01T05:47:42;4.65;;;1.77;;
72791;SDS011;60907;53.268;8.764;2023-03-01T05:50:18;4.20;;;2.17;;
72791;SDS011;60907;53.268;8.764;2023-03-01T05:52:49;5.22;;;1.90;;
72791;SDS011;60907;53.268;8.764;2023-03-01T05:55:17;4.65;;;1.85;;
72791;SDS011;60907;53.268;8.764;2023-03-01T05:57:43;2.75;;;1.73;;
72791;SDS011;60907;53.268;8.764;2023-03-01T06:00:09;4.70;;;1.92;;
72791;SDS011;60907;53.268;8.764;2023-03-01T06:02:35;4.05;;;2.05;;
72791;SDS011;60907;53.268;8.764;2023-03-01T06:05:01;4.57;;;2.38;;
72791;SDS011;60907;53.268;8.764;2023-03-01T06:07:27;3.80;;;2.75;;
72791;SDS011;60907;53.268;8.764;2023-03-01T06:09:53;5.13;;;2.50;;
72791;SDS011;60907;53.268;8.764;2023-03-01T06:12:18;4.88;;;2.13;;
72791;SDS011;60907;53.268;8.764;2023-03-01T06:14:44;4.55;;;2.75;;
72791;SDS011;60907;53.268;8.764;2023-03-01T06:17:11;5.40;;;2.47;;
72791;SDS011;60907;53.268;8.764;2023-03-01T06:19:37;3.95;;;2.40;;
72791;SDS011;60907;53.268;8.764;2023-03-01T06:22:02;3.50;;;1.90;;
72791;SDS011;60907;53.268;8.764;2023-03-01T06:24:27;3.38;;;2.25;;
72791;SDS011;60907;53.268;8.764;2023-03-01T06:26:53;3.95;;;1.90;;
72791;SDS011;60907;53.268;8.764;2023-03-01T06:29:19;5.63;;;2.47;;
72791;SDS011;60907;53.268;8.764;2023-03-01T06:31:45;5.13;;;2.20;;
72791;SDS011;60907;53.268;8.764;2023-03-01T06:34:10;3.88;;;1.75;;
72791;SDS011;60907;53.268;8.764;2023-03-01T06:36:38;3.42;;;1.92;;
72791;SDS011;60907;53.268;8.764;2023-03-01T06:39:04;4.10;;;2.20;;
72791;SDS011;60907;53.268;8.764;2023-03-01T06:41:30;7.40;;;2.25;;
72791;SDS011;60907;53.268;8.764;2023-03-01T06:43:56;4.95;;;2.10;;
72791;SDS011;60907;53.268;8.764;2023-03-01T06:46:21;5.10;;;1.80;;
72791;SDS011;60907;53.268;8.764;2023-03-01T06:48:47;5.85;;;1.90;;
72791;SDS011;60907;53.268;8.764;2023-03-01T06:51:12;4.22;;;2.20;;
72791;SDS011;60907;53.268;8.764;2023-03-01T06:53:38;5.60;;;1.95;;
72791;SDS011;60907;53.268;8.764;2023-03-01T06:56:03;4.30;;;2.60;;
72791;SDS011;60907;53.268;8.764;2023-03-01T06:58:29;5.30;;;2.40;;
72791;SDS011;60907;53.268;8.764;2023-03-01T07:00:54;4.68;;;2.28;;
72791;SDS011;60907;53.268;8.764;2023-03-01T07:03:20;5.93;;;2.40;;
72791;SDS011;60907;53.268;8.764;2023-03-01T07:05:48;3.92;;;2.05;;
72791;SDS011;60907;53.268;8.764;2023-03-01T07:08:14;5.72;;;2.35;;
72791;SDS011;60907;53.268;8.764;2023-03-01T07:10:40;3.92;;;1.77;;
72791;SDS011;60907;53.268;8.764;2023-03-01T07:13:05;4.93;;;1.98;;
72791;SDS011;60907;53.268;8.764;2023-03-01T07:15:32;4.05;;;1.92;;
72791;SDS011;60907;53.268;8.764;2023-03-01T07:17:57;6.50;;;2.65;;
72791;SDS011;60907;53.268;8.764;2023-03-01T07:20:23;7.55;;;3.00;;
72791;SDS011;60907;53.268;8.764;2023-03-01T07:22:50;4.68;;;2.20;;
72791;SDS011;60907;53.268;8.764;2023-03-01T07:25:16;4.68;;;2.28;;
72791;SDS011;60907;53.268;8.764;2023-03-01T07:27:42;4.90;;;2.60;;
72791;SDS011;60907;53.268;8.764;2023-03-01T07:30:08;6.78;;;2.30;;
72791;SDS011;60907;53.268;8.764;2023-03-01T07:32:33;7.20;;;2.45;;
72791;SDS011;60907;53.268;8.764;2023-03-01T07:34:59;4.20;;;2.45;;
72791;SDS011;60907;53.268;8.764;2023-03-01T07:37:24;5.90;;;2.25;;
72791;SDS011;60907;53.268;8.764;2023-03-01T07:39:50;3.58;;;2.08;;
72791;SDS011;60907;53.268;8.764;2023-03-01T07:42:15;4.35;;;2.47;;
72791;SDS011;60907;53.268;8.764;2023-03-01T07:44:41;6.68;;;2.78;;
72791;SDS011;60907;53.268;8.764;2023-03-01T07:47:06;5.18;;;2.45;;
72791;SDS011;60907;53.268;8.764;2023-03-01T07:49:32;5.13;;;2.22;;
72791;SDS011;60907;53.268;8.764;2023-03-01T07:51:57;5.55;;;2.38;;
72791;SDS011;60907;53.268;8.764;2023-03-01T07:54:23;6.63;;;2.80;;
72791;SDS011;60907;53.268;8.764;2023-03-01T07:56:48;7.35;;;2.53;;
72791;SDS011;60907;53.268;8.764;2023-03-01T07:59:14;4.88;;;2.35;;
72791;SDS011;60907;53.268;8.764;2023-03-01T08:01:39;3.75;;;2.10;;
72791;SDS011;60907;53.268;8.764;2023-03-01T08:04:05;5.15;;;2.30;;
72791;SDS011;60907;53.268;8.764;2023-03-01T08:06:33;4.35;;;2.17;;
72791;SDS011;60907;53.268;8.764;2023-03-01T08:08:59;7.68;;;3.05;;
72791;SDS011;60907;53.268;8.764;2023-03-01T08:11:25;10.02;;;4.72;;
72791;SDS011;60907;53.268;8.764;2023-03-01T08:13:50;13.27;;;5.40;;
72791;SDS011;60907;53.268;8.764;2023-03-01T08:16:15;10.07;;;4.57;;
72791;SDS011;60907;53.268;8.764;2023-03-01T08:18:41;5.32;;;3.35;;
72791;SDS011;60907;53.268;8.764;2023-03-01T08:21:14;6.15;;;3.78;;
72791;SDS011;60907;53.268;8.764;2023-03-01T08:23:41;5.80;;;3.58;;
72791;SDS011;60907;53.268;8.764;2023-03-01T08:26:11;5.47;;;3.45;;
72791;SDS011;60907;53.268;8.764;2023-03-01T08:28:40;6.60;;;3.78;;
72791;SDS011;60907;53.268;8.764;2023-03-01T08:31:21;8.57;;;3.70;;
72791;SDS011;60907;53.268;8.764;2023-03-01T08:33:49;7.60;;;3.28;;
72791;SDS011;60907;53.268;8.764;2023-03-01T08:36:20;8.40;;;3.30;;
72791;SDS011;60907;53.268;8.764;2023-03-01T08:38:46;5.60;;;3.42;;
72791;SDS011;60907;53.268;8.764;2023-03-01T08:41:11;6.28;;;3.15;;
72791;SDS011;60907;53.268;8.764;2023-03-01T08:43:37;6.80;;;2.97;;
72791;SDS011;60907;53.268;8.764;2023-03-01T08:46:02;5.93;;;3.20;;
72791;SDS011;60907;53.268;8.764;2023-03-01T08:48:28;8.68;;;3.17;;
72791;SDS011;60907;53.268;8.764;2023-03-01T08:50:53;5.65;;;2.40;;
72791;SDS011;60907;53.268;8.764;2023-03-01T08:53:19;6.10;;;2.60;;
72791;SDS011;60907;53.268;8.764;2023-03-01T08:55:46;8.00;;;3.35;;
72791;SDS011;60907;53.268;8.764;2023-03-01T08:58:11;8.40;;;2.90;;
72791;SDS011;60907;53.268;8.764;2023-03-01T09:00:37;4.85;;;2.95;;
72791;SDS011;60907;53.268;8.764;2023-03-01T09:03:03;5.97;;;2.65;;
72791;SDS011;60907;53.268;8.764;2023-03-01T09:05:31;5.47;;;2.78;;
72791;SDS011;60907;53.268;8.764;2023-03-01T09:07:57;4.28;;;2.55;;
72791;SDS011;60907;53.268;8.764;2023-03-01T09:10:23;7.55;;;2.33;;
72791;SDS011;60907;53.268;8.764;2023-03-01T09:12:48;4.78;;;2.63;;
72791;SDS011;60907;53.268;8.764;2023-03-01T09:15:13;3.88;;;2.83;;
72791;SDS011;60907;53.268;8.764;2023-03-01T09:17:39;6.55;;;3.10;;
72791;SDS011;60907;53.268;8.764;2023-03-01T09:20:04;4.25;;;2.97;;
72791;SDS011;60907;53.268;8.764;2023-03-01T09:22:32;5.85;;;3.17;;
72791;SDS011;60907;53.268;8.764;2023-03-01T09:24:59;7.32;;;3.58;;
72791;SDS011;60907;53.268;8.764;2023-03-01T09:27:24;5.00;;;3.22;;
72791;SDS011;60907;53.268;8.764;2023-03-01T09:29:50;6.63;;;3.42;;
72791;SDS011;60907;53.268;8.764;2023-03-01T09:32:15;6.60;;;3.35;;
72791;SDS011;60907;53.268;8.764;2023-03-01T09:34:41;7.65;;;3.22;;
72791;SDS011;60907;53.268;8.764;2023-03-01T09:37:25;6.30;;;3.58;;
72791;SDS011;60907;53.268;8.764;2023-03-01T09:39:51;8.63;;;4.10;;
72791;SDS011;60907;53.268;8.764;2023-03-01T09:42:17;8.05;;;4.00;;
72791;SDS011;60907;53.268;8.764;2023-03-01T09:44:45;7.88;;;3.83;;
72791;SDS011;60907;53.268;8.764;2023-03-01T09:55:17;8.63;;;4.30;;
72791;SDS011;60907;53.268;8.764;2023-03-01T10:02:56;8.02;;;4.45;;
72791;SDS011;60907;53.268;8.764;2023-03-01T10:08:26;10.65;;;4.55;;
72791;SDS011;60907;53.268;8.764;2023-03-01T10:10:56;11.10;;;5.10;;
72791;SDS011;60907;53.268;8.764;2023-03-01T10:13:37;11.57;;;4.80;;
72791;SDS011;60907;53.268;8.764;2023-03-01T10:19:09;12.50;;;5.20;;
72791;SDS011;60907;53.268;8.764;2023-03-01T10:21:39;10.40;;;5.05;;
72791;SDS011;60907;53.268;8.764;2023-03-01T10:24:10;11.52;;;5.20;;
72791;SDS011;60907;53.268;8.764;2023-03-01T10:26:41;12.93;;;5.45;;
72791;SDS011;60907;53.268;8.764;2023-03-01T10:29:10;15.93;;;6.80;;
72791;SDS011;60907;53.268;8.764;2023-03-01T10:31:44;14.13;;;6.35;;
72791;SDS011;60907;53.268;8.764;2023-03-01T10:34:13;13.73;;;5.13;;
72791;SDS011;60907;53.268;8.764;2023-03-01T10:36:43;15.10;;;6.72;;
72791;SDS011;60907;53.268;8.764;2023-03-01T10:39:13;14.77;;;6.40;;
72791;SDS011;60907;53.268;8.764;2023-03-01T10:41:54;13.63;;;6.38;;
72791;SDS011;60907;53.268;8.764;2023-03-01T10:52:23;15.02;;;7.57;;
72791;SDS011;60907;53.268;8.764;2023-03-01T10:57:38;13.88;;;7.03;;
72791;SDS011;60907;53.268;8.764;2023-03-01T11:02:49;13.98;;;6.75;;
72791;SDS011;60907;53.268;8.764;2023-03-01T11:05:18;11.30;;;5.57;;
72791;SDS011;60907;53.268;8.764;2023-03-01T11:07:52;14.40;;;6.72;;
72791;SDS011;60907;53.268;8.764;2023-03-01T11:10:21;17.98;;;7.53;;
72791;SDS011;60907;53.268;8.764;2023-03-01T11:12:50;16.65;;;7.03;;
72791;SDS011;60907;53.268;8.764;2023-03-01T11:15:23;14.77;;;7.20;;
72791;SDS011;60907;53.268;8.764;2023-03-01T11:17:50;16.92;;;8.38;;
72791;SDS011;60907;53.268;8.764;2023-03-01T11:22:53;14.70;;;7.63;;
72791;SDS011;60907;53.268;8.764;2023-03-01T11:25:21;16.55;;;7.63;;
72791;SDS011;60907;53.268;8.764;2023-03-01T11:27:49;13.65;;;6.72;;
72791;SDS011;60907;53.268;8.764;2023-03-01T11:32:47;14.57;;;7.57;;
72791;SDS011;60907;53.268;8.764;2023-03-01T11:35:20;15.70;;;7.45;;
72791;SDS011;60907;53.268;8.764;2023-03-01T11:40:29;15.27;;;7.93;;
72791;SDS011;60907;53.268;8.764;2023-03-01T11:43:09;16.30;;;7.78;;
72791;SDS011;60907;53.268;8.764;2023-03-01T11:48:43;16.38;;;8.15;;
72791;SDS011;60907;53.268;8.764;2023-03-01T11:54:10;15.40;;;7.57;;
72791;SDS011;60907;53.268;8.764;2023-03-01T11:56:55;15.57;;;7.43;;
72791;SDS011;60907;53.268;8.764;2023-03-01T12:10:14;15.45;;;7.13;;
72791;SDS011;60907;53.268;8.764;2023-03-01T12:12:53;16.20;;;7.53;;
72791;SDS011;60907;53.268;8.764;2023-03-01T12:26:31;16.55;;;8.55;;
72791;SDS011;60907;53.268;8.764;2023-03-01T12:29:02;15.38;;;7.53;;
72791;SDS011;60907;53.268;8.764;2023-03-01T12:42:44;15.57;;;7.78;;
72791;SDS011;60907;53.268;8.764;2023-03-01T12:50:29;16.20;;;7.70;;
72791;SDS011;60907;53.268;8.764;2023-03-01T12:53:03;14.82;;;7.53;;
72791;SDS011;60907;53.268;8.764;2023-03-01T12:55:36;15.88;;;7.63;;
72791;SDS011;60907;53.268;8.764;2023-03-01T12:58:06;15.75;;;7.78;;
72791;SDS011;60907;53.268;8.764;2023-03-01T13:08:44;16.95;;;8.05;;
72791;SDS011;60907;53.268;8.764;2023-03-01T13:11:17;16.63;;;8.70;;
72791;SDS011;60907;53.268;8.764;2023-03-01T13:13:44;15.48;;;7.90;;
72791;SDS011;60907;53.268;8.764;2023-03-01T13:16:21;15.85;;;7.70;;
72791;SDS011;60907;53.268;8.764;2023-03-01T13:19:12;16.38;;;8.20;;
72791;SDS011;60907;53.268;8.764;2023-03-01T13:21:39;16.38;;;7.93;;
72791;SDS011;60907;53.268;8.764;2023-03-01T13:24:22;16.40;;;8.27;;
72791;SDS011;60907;53.268;8.764;2023-03-01T13:34:57;16.73;;;8.48;;
72791;SDS011;60907;53.268;8.764;2023-03-01T13:37:45;16.95;;;8.23;;
72791;SDS011;60907;53.268;8.764;2023-03-01T13:43:30;15.75;;;8.02;;
72791;SDS011;60907;53.268;8.764;2023-03-01T13:45:47;19.70;;;8.43;;
72791;SDS011;60907;53.268;8.764;2023-03-01T13:48:23;18.48;;;8.23;;
72791;SDS011;60907;53.268;8.764;2023-03-01T13:50:51;15.48;;;8.35;;
72791;SDS011;60907;53.268;8.764;2023-03-01T13:53:22;17.20;;;8.98;;
72791;SDS011;60907;53.268;8.764;2023-03-01T13:55:49;19.33;;;9.27;;
72791;SDS011;60907;53.268;8.764;2023-03-01T14:03:26;17.05;;;7.45;;
72791;SDS011;60907;53.268;8.764;2023-03-01T14:06:00;16.55;;;7.97;;
72791;SDS011;60907;53.268;8.764;2023-03-01T14:19:38;15.30;;;8.25;;
72791;SDS011;60907;53.268;8.764;2023-03-01T14:27:23;18.52;;;8.90;;
72791;SDS011;60907;53.268;8.764;2023-03-01T14:29:55;16.42;;;8.32;;
72791;SDS011;60907;53.268;8.764;2023-03-01T14:32:27;16.33;;;8.38;;
72791;SDS011;60907;53.268;8.764;2023-03-01T14:34:54;16.52;;;8.27;;
72791;SDS011;60907;53.268;8.764;2023-03-01T14:37:32;17.63;;;8.70;;
72791;SDS011;60907;53.268;8.764;2023-03-01T14:39:59;18.80;;;8.38;;
72791;SDS011;60907;53.268;8.764;2023-03-01T14:42:31;16.02;;;8.23;;
72791;SDS011;60907;53.268;8.764;2023-03-01T14:45:00;16.15;;;8.00;;
72791;SDS011;60907;53.268;8.764;2023-03-01T14:47:31;16.27;;;7.57;;
72791;SDS011;60907;53.268;8.764;2023-03-01T14:50:03;17.13;;;8.18;;
72791;SDS011;60907;53.268;8.764;2023-03-01T14:52:37;16.48;;;8.13;;
72791;SDS011;60907;53.268;8.764;2023-03-01T14:55:06;15.55;;;7.88;;
72791;SDS011;60907;53.268;8.764;2023-03-01T14:57:44;16.23;;;8.40;;
72791;SDS011;60907;53.268;8.764;2023-03-01T15:00:16;14.75;;;7.57;;
72791;SDS011;60907;53.268;8.764;2023-03-01T15:02:44;15.23;;;7.60;;
72791;SDS011;60907;53.268;8.764;2023-03-01T15:05:13;16.50;;;8.00;;
72791;SDS011;60907;53.268;8.764;2023-03-01T15:07:41;15.75;;;7.70;;
72791;SDS011;60907;53.268;8.764;2023-03-01T15:10:24;15.60;;;7.45;;
72791;SDS011;60907;53.268;8.764;2023-03-01T15:12:54;13.70;;;6.60;;
72791;SDS011;60907;53.268;8.764;2023-03-01T15:17:48;15.27;;;8.27;;
72791;SDS011;60907;53.268;8.764;2023-03-01T15:20:17;16.10;;;7.78;;
72791;SDS011;60907;53.268;8.764;2023-03-01T15:22:47;14.65;;;7.25;;
72791;SDS011;60907;53.268;8.764;2023-03-01T15:25:16;15.30;;;7.45;;
72791;SDS011;60907;53.268;8.764;2023-03-01T15:27:47;14.63;;;7.55;;
72791;SDS011;60907;53.268;8.764;2023-03-01T15:30:17;15.25;;;7.57;;
72791;SDS011;60907;53.268;8.764;2023-03-01T15:32:48;13.77;;;6.57;;
72791;SDS011;60907;53.268;8.764;2023-03-01T15:40:52;13.15;;;6.20;;
72791;SDS011;60907;53.268;8.764;2023-03-01T15:46:03;13.88;;;6.63;;
72791;SDS011;60907;53.268;8.764;2023-03-01T15:48:29;14.15;;;7.10;;
72791;SDS011;60907;53.268;8.764;2023-03-01T15:50:55;16.00;;;7.03;;
72791;SDS011;60907;53.268;8.764;2023-03-01T15:53:22;18.13;;;8.65;;
72791;SDS011;60907;53.268;8.764;2023-03-01T15:55:48;17.42;;;7.45;;
72791;SDS011;60907;53.268;8.764;2023-03-01T15:58:16;14.27;;;7.05;;
72791;SDS011;60907;53.268;8.764;2023-03-01T16:00:44;13.55;;;6.97;;
72791;SDS011;60907;53.268;8.764;2023-03-01T16:03:10;13.45;;;6.30;;
72791;SDS011;60907;53.268;8.764;2023-03-01T16:05:37;13.32;;;6.47;;
72791;SDS011;60907;53.268;8.764;2023-03-01T16:08:03;15.00;;;6.93;;
72791;SDS011;60907;53.268;8.764;2023-03-01T16:10:32;16.77;;;7.13;;
72791;SDS011;60907;53.268;8.764;2023-03-01T16:12:58;14.55;;;6.95;;
72791;SDS011;60907;53.268;8.764;2023-03-01T16:15:26;14.48;;;7.38;;
72791;SDS011;60907;53.268;8.764;2023-03-01T16:17:55;13.90;;;6.45;;
72791;SDS011;60907;53.268;8.764;2023-03-01T16:20:22;15.70;;;6.95;;
72791;SDS011;60907;53.268;8.764;2023-03-01T16:22:47;15.60;;;6.68;;
72791;SDS011;60907;53.268;8.764;2023-03-01T16:25:14;12.02;;;5.88;;
72791;SDS011;60907;53.268;8.764;2023-03-01T16:27:44;12.75;;;6.78;;
72791;SDS011;60907;53.268;8.764;2023-03-01T16:30:11;14.13;;;6.88;;
72791;SDS011;60907;53.268;8.764;2023-03-01T16:32:38;14.07;;;6.97;;
72791;SDS011;60907;53.268;8.764;2023-03-01T16:35:05;14.88;;;7.07;;
72791;SDS011;60907;53.268;8.764;2023-03-01T16:37:32;16.13;;;7.28;;
72791;SDS011;60907;53.268;8.764;2023-03-01T16:39:58;17.42;;;7.22;;
72791;SDS011;60907;53.268;8.764;2023-03-01T16:42:23;16.23;;;7.53;;
72791;SDS011;60907;53.268;8.764;2023-03-01T16:44:51;14.68;;;7.20;;
72791;SDS011;60907;53.268;8.764;2023-03-01T16:47:20;15.80;;;7.43;;
72791;SDS011;60907;53.268;8.764;2023-03-01T16:49:45;17.13;;;7.55;;
72791;SDS011;60907;53.268;8.764;2023-03-01T16:52:11;16.45;;;7.55;;
72791;SDS011;60907;53.268;8.764;2023-03-01T16:54:36;16.55;;;8.23;;
72791;SDS011;60907;53.268;8.764;2023-03-01T16:57:02;22.25;;;11.02;;
72791;SDS011;60907;53.268;8.764;2023-03-01T16:59:27;48.38;;;16.52;;
72791;SDS011;60907;53.268;8.764;2023-03-01T17:01:53;22.58;;;10.20;;
72791;SDS011;60907;53.268;8.764;2023-03-01T17:04:18;19.75;;;8.85;;
72791;SDS011;60907;53.268;8.764;2023-03-01T17:06:44;15.45;;;7.80;;
72791;SDS011;60907;53.268;8.764;2023-03-01T17:09:11;16.00;;;8.25;;
72791;SDS011;60907;53.268;8.764;2023-03-01T17:11:37;15.48;;;8.48;;
72791;SDS011;60907;53.268;8.764;2023-03-01T17:14:03;20.33;;;9.30;;
72791;SDS011;60907;53.268;8.764;2023-03-01T17:16:28;19.83;;;9.10;;